sensor_id;sensor_type;location;lat;lon;timestamp;P1;durP1;ratioP1;P2;durP2;ratioP2
2772;SDS011;1394;47.044;15.744;2022-12-07T00:00:43;27.53;;;4.83;;
2772;SDS011;1394;47.044;15.744;2022-12-07T00:03:11;28.57;;;5.20;;
2772;SDS011;1394;47.044;15.744;2022-12-07T00:05:38;27.83;;;5.10;;
2772;SDS011;1394;47.044;15.744;2022-12-07T00:08:05;28.20;;;5.50;;
2772;SDS011;1394;47.044;15.744;2022-12-07T00:10:33;27.33;;;5.03;;
2772;SDS011;1394;47.044;15.744;2022-12-07T00:13:15;27.10;;;4.77;;
2772;SDS011;1394;47.044;15.744;2022-12-07T00:16:01;27.30;;;5.10;;
2772;SDS011;1394;47.044;15.744;2022-12-07T00:18:29;27.40;;;4.80;;
2772;SDS011;1394;47.044;15.744;2022-12-07T00:20:59;27.40;;;4.83;;
2772;SDS011;1394;47.044;15.744;2022-12-07T00:23:27;28.00;;;5.30;;
2772;SDS011;1394;47.044;15.744;2022-12-07T00:25:54;27.17;;;4.70;;
2772;SDS011;1394;47.044;15.744;2022-12-07T00:28:23;27.60;;;5.03;;
2772;SDS011;1394;47.044;15.744;2022-12-07T00:30:50;26.93;;;4.67;;
2772;SDS011;1394;47.044;15.744;2022-12-07T00:33:17;28.50;;;5.63;;
2772;SDS011;1394;47.044;15.744;2022-12-07T00:35:45;27.27;;;4.83;;
2772;SDS011;1394;47.044;15.744;2022-12-07T00:38:12;28.40;;;5.03;;
2772;SDS011;1394;47.044;15.744;2022-12-07T00:40:39;26.70;;;4.50;;
2772;SDS011;1394;47.044;15.744;2022-12-07T00:43:08;26.80;;;4.47;;
2772;SDS011;1394;47.044;15.744;2022-12-07T00:45:37;28.87;;;5.70;;
2772;SDS011;1394;47.044;15.744;2022-12-07T00:48:05;27.63;;;4.70;;
2772;SDS011;1394;47.044;15.744;2022-12-07T00:50:32;28.20;;;5.40;;
2772;SDS011;1394;47.044;15.744;2022-12-07T00:52:59;26.80;;;4.50;;
2772;SDS011;1394;47.044;15.744;2022-12-07T00:55:26;26.87;;;4.30;;
2772;SDS011;1394;47.044;15.744;2022-12-07T00:57:57;27.10;;;4.70;;
2772;SDS011;1394;47.044;15.744;2022-12-07T01:00:24;27.00;;;4.30;;
2772;SDS011;1394;47.044;15.744;2022-12-07T01:02:53;26.30;;;4.23;;
2772;SDS011;1394;47.044;15.744;2022-12-07T01:05:20;27.00;;;4.40;;
2772;SDS011;1394;47.044;15.744;2022-12-07T01:07:47;28.33;;;5.50;;
2772;SDS011;1394;47.044;15.744;2022-12-07T01:10:14;28.00;;;5.07;;
2772;SDS011;1394;47.044;15.744;2022-12-07T01:12:42;26.63;;;4.13;;
2772;SDS011;1394;47.044;15.744;2022-12-07T01:15:10;26.90;;;4.80;;
2772;SDS011;1394;47.044;15.744;2022-12-07T01:17:37;26.70;;;4.20;;
2772;SDS011;1394;47.044;15.744;2022-12-07T01:20:07;26.93;;;4.27;;
2772;SDS011;1394;47.044;15.744;2022-12-07T01:22:36;27.03;;;4.50;;
2772;SDS011;1394;47.044;15.744;2022-12-07T01:25:04;27.47;;;4.90;;
2772;SDS011;1394;47.044;15.744;2022-12-07T01:27:31;26.50;;;4.40;;
2772;SDS011;1394;47.044;15.744;2022-12-07T01:29:59;26.10;;;3.80;;
2772;SDS011;1394;47.044;15.744;2022-12-07T01:32:26;26.40;;;4.13;;
2772;SDS011;1394;47.044;15.744;2022-12-07T01:34:53;26.97;;;4.57;;
2772;SDS011;1394;47.044;15.744;2022-12-07T01:37:22;27.23;;;4.50;;
2772;SDS011;1394;47.044;15.744;2022-12-07T01:39:49;27.93;;;4.40;;
2772;SDS011;1394;47.044;15.744;2022-12-07T01:42:17;27.77;;;4.70;;
2772;SDS011;1394;47.044;15.744;2022-12-07T01:47:31;28.90;;;5.60;;
2772;SDS011;1394;47.044;15.744;2022-12-07T01:49:58;30.10;;;5.87;;
2772;SDS011;1394;47.044;15.744;2022-12-07T01:52:29;28.30;;;4.90;;
2772;SDS011;1394;47.044;15.744;2022-12-07T01:54:59;26.47;;;3.87;;
2772;SDS011;1394;47.044;15.744;2022-12-07T01:57:28;27.13;;;4.87;;
2772;SDS011;1394;47.044;15.744;2022-12-07T01:59:56;27.87;;;4.90;;
2772;SDS011;1394;47.044;15.744;2022-12-07T02:02:25;26.63;;;4.47;;
2772;SDS011;1394;47.044;15.744;2022-12-07T02:04:53;28.20;;;4.90;;
2772;SDS011;1394;47.044;15.744;2022-12-07T02:07:36;28.10;;;5.00;;
2772;SDS011;1394;47.044;15.744;2022-12-07T02:10:12;29.90;;;5.30;;
2772;SDS011;1394;47.044;15.744;2022-12-07T02:12:45;29.43;;;5.97;;
2772;SDS011;1394;47.044;15.744;2022-12-07T02:15:41;26.50;;;4.00;;
2772;SDS011;1394;47.044;15.744;2022-12-07T02:18:50;26.20;;;3.77;;
2772;SDS011;1394;47.044;15.744;2022-12-07T02:21:39;26.07;;;3.70;;
2772;SDS011;1394;47.044;15.744;2022-12-07T02:30:30;28.50;;;4.60;;
2772;SDS011;1394;47.044;15.744;2022-12-07T02:33:15;26.50;;;3.90;;
2772;SDS011;1394;47.044;15.744;2022-12-07T02:36:35;25.97;;;3.67;;
2772;SDS011;1394;47.044;15.744;2022-12-07T02:39:11;25.47;;;3.30;;
2772;SDS011;1394;47.044;15.744;2022-12-07T02:42:07;26.57;;;4.07;;
2772;SDS011;1394;47.044;15.744;2022-12-07T02:57:02;27.37;;;4.83;;
2772;SDS011;1394;47.044;15.744;2022-12-07T02:59:47;29.37;;;5.23;;
2772;SDS011;1394;47.044;15.744;2022-12-07T03:02:42;26.07;;;3.40;;
2772;SDS011;1394;47.044;15.744;2022-12-07T03:05:34;26.13;;;3.83;;
2772;SDS011;1394;47.044;15.744;2022-12-07T03:08:05;28.20;;;4.80;;
2772;SDS011;1394;47.044;15.744;2022-12-07T03:10:38;27.43;;;4.73;;
2772;SDS011;1394;47.044;15.744;2022-12-07T03:13:23;28.40;;;5.07;;
2772;SDS011;1394;47.044;15.744;2022-12-07T03:16:02;29.00;;;5.27;;
2772;SDS011;1394;47.044;15.744;2022-12-07T03:18:36;26.80;;;4.50;;
2772;SDS011;1394;47.044;15.744;2022-12-07T03:21:06;27.17;;;4.20;;
2772;SDS011;1394;47.044;15.744;2022-12-07T03:23:36;28.30;;;5.10;;
2772;SDS011;1394;47.044;15.744;2022-12-07T03:26:04;31.33;;;5.37;;
2772;SDS011;1394;47.044;15.744;2022-12-07T03:28:36;30.13;;;5.40;;
2772;SDS011;1394;47.044;15.744;2022-12-07T03:31:07;27.73;;;4.70;;
2772;SDS011;1394;47.044;15.744;2022-12-07T03:33:37;29.03;;;5.27;;
2772;SDS011;1394;47.044;15.744;2022-12-07T03:36:21;26.10;;;3.50;;
2772;SDS011;1394;47.044;15.744;2022-12-07T03:38:52;27.07;;;4.17;;
2772;SDS011;1394;47.044;15.744;2022-12-07T03:41:22;27.77;;;4.40;;
2772;SDS011;1394;47.044;15.744;2022-12-07T03:43:51;28.10;;;4.67;;
2772;SDS011;1394;47.044;15.744;2022-12-07T03:46:21;25.47;;;3.03;;
2772;SDS011;1394;47.044;15.744;2022-12-07T03:48:52;26.10;;;3.20;;
2772;SDS011;1394;47.044;15.744;2022-12-07T03:51:22;27.30;;;3.80;;
2772;SDS011;1394;47.044;15.744;2022-12-07T03:53:57;28.90;;;4.20;;
2772;SDS011;1394;47.044;15.744;2022-12-07T03:56:26;25.77;;;3.20;;
2772;SDS011;1394;47.044;15.744;2022-12-07T03:58:56;26.10;;;4.00;;
2772;SDS011;1394;47.044;15.744;2022-12-07T04:01:23;25.50;;;3.40;;
2772;SDS011;1394;47.044;15.744;2022-12-07T04:03:51;25.57;;;2.77;;
2772;SDS011;1394;47.044;15.744;2022-12-07T04:06:18;26.13;;;3.03;;
2772;SDS011;1394;47.044;15.744;2022-12-07T04:08:48;26.47;;;3.30;;
2772;SDS011;1394;47.044;15.744;2022-12-07T04:11:16;27.93;;;4.03;;
2772;SDS011;1394;47.044;15.744;2022-12-07T04:13:45;29.33;;;4.87;;
2772;SDS011;1394;47.044;15.744;2022-12-07T04:16:31;26.17;;;3.40;;
2772;SDS011;1394;47.044;15.744;2022-12-07T04:18:59;25.93;;;3.40;;
2772;SDS011;1394;47.044;15.744;2022-12-07T04:21:26;27.00;;;3.73;;
2772;SDS011;1394;47.044;15.744;2022-12-07T04:23:53;25.50;;;3.03;;
2772;SDS011;1394;47.044;15.744;2022-12-07T04:26:21;26.73;;;4.10;;
2772;SDS011;1394;47.044;15.744;2022-12-07T04:28:48;28.60;;;3.80;;
2772;SDS011;1394;47.044;15.744;2022-12-07T04:31:15;27.07;;;4.63;;
2772;SDS011;1394;47.044;15.744;2022-12-07T04:33:44;27.93;;;4.30;;
2772;SDS011;1394;47.044;15.744;2022-12-07T04:36:11;27.83;;;4.30;;
2772;SDS011;1394;47.044;15.744;2022-12-07T04:38:38;26.27;;;3.90;;
2772;SDS011;1394;47.044;15.744;2022-12-07T04:41:06;26.27;;;3.40;;
2772;SDS011;1394;47.044;15.744;2022-12-07T04:43:34;27.17;;;4.70;;
2772;SDS011;1394;47.044;15.744;2022-12-07T04:46:01;30.00;;;4.43;;
2772;SDS011;1394;47.044;15.744;2022-12-07T04:48:28;26.10;;;3.50;;
2772;SDS011;1394;47.044;15.744;2022-12-07T04:50:57;27.30;;;3.80;;
2772;SDS011;1394;47.044;15.744;2022-12-07T04:53:24;26.87;;;3.83;;
2772;SDS011;1394;47.044;15.744;2022-12-07T04:55:52;26.80;;;3.70;;
2772;SDS011;1394;47.044;15.744;2022-12-07T04:58:19;26.27;;;3.40;;
2772;SDS011;1394;47.044;15.744;2022-12-07T05:00:46;29.23;;;3.30;;
2772;SDS011;1394;47.044;15.744;2022-12-07T05:03:13;26.93;;;3.80;;
2772;SDS011;1394;47.044;15.744;2022-12-07T05:05:41;25.70;;;3.03;;
2772;SDS011;1394;47.044;15.744;2022-12-07T05:08:10;25.47;;;3.13;;
2772;SDS011;1394;47.044;15.744;2022-12-07T05:10:37;28.00;;;3.93;;
2772;SDS011;1394;47.044;15.744;2022-12-07T05:13:05;27.83;;;3.87;;
2772;SDS011;1394;47.044;15.744;2022-12-07T05:15:32;30.00;;;3.70;;
2772;SDS011;1394;47.044;15.744;2022-12-07T05:18:00;36.17;;;5.77;;
2772;SDS011;1394;47.044;15.744;2022-12-07T05:20:28;29.80;;;4.53;;
2772;SDS011;1394;47.044;15.744;2022-12-07T05:22:55;25.50;;;3.00;;
2772;SDS011;1394;47.044;15.744;2022-12-07T05:25:25;27.30;;;3.57;;
2772;SDS011;1394;47.044;15.744;2022-12-07T05:28:21;26.13;;;3.43;;
2772;SDS011;1394;47.044;15.744;2022-12-07T05:34:36;31.87;;;4.10;;
2772;SDS011;1394;47.044;15.744;2022-12-07T05:37:04;27.30;;;3.30;;
2772;SDS011;1394;47.044;15.744;2022-12-07T05:39:31;33.83;;;4.03;;
2772;SDS011;1394;47.044;15.744;2022-12-07T05:42:00;25.40;;;2.70;;
2772;SDS011;1394;47.044;15.744;2022-12-07T05:44:39;25.77;;;3.13;;
2772;SDS011;1394;47.044;15.744;2022-12-07T05:47:07;25.00;;;2.40;;
2772;SDS011;1394;47.044;15.744;2022-12-07T05:49:34;25.10;;;2.50;;
2772;SDS011;1394;47.044;15.744;2022-12-07T05:52:02;25.70;;;2.87;;
2772;SDS011;1394;47.044;15.744;2022-12-07T05:54:29;25.10;;;2.50;;
2772;SDS011;1394;47.044;15.744;2022-12-07T05:56:56;24.97;;;2.50;;
2772;SDS011;1394;47.044;15.744;2022-12-07T05:59:27;24.67;;;2.00;;
2772;SDS011;1394;47.044;15.744;2022-12-07T06:01:54;24.70;;;2.17;;
2772;SDS011;1394;47.044;15.744;2022-12-07T06:04:22;26.70;;;3.20;;
2772;SDS011;1394;47.044;15.744;2022-12-07T06:06:52;24.97;;;2.30;;
2772;SDS011;1394;47.044;15.744;2022-12-07T06:09:21;26.27;;;2.77;;
2772;SDS011;1394;47.044;15.744;2022-12-07T06:11:49;26.07;;;2.47;;
2772;SDS011;1394;47.044;15.744;2022-12-07T06:14:35;24.90;;;2.10;;
2772;SDS011;1394;47.044;15.744;2022-12-07T06:17:16;27.47;;;2.30;;
2772;SDS011;1394;47.044;15.744;2022-12-07T06:19:43;25.27;;;2.13;;
2772;SDS011;1394;47.044;15.744;2022-12-07T06:22:11;24.70;;;2.07;;
2772;SDS011;1394;47.044;15.744;2022-12-07T06:24:38;25.87;;;2.60;;
2772;SDS011;1394;47.044;15.744;2022-12-07T06:27:06;26.00;;;1.90;;
2772;SDS011;1394;47.044;15.744;2022-12-07T06:29:34;24.93;;;2.03;;
2772;SDS011;1394;47.044;15.744;2022-12-07T06:32:02;26.77;;;2.63;;
2772;SDS011;1394;47.044;15.744;2022-12-07T06:34:29;25.80;;;3.20;;
2772;SDS011;1394;47.044;15.744;2022-12-07T06:36:57;25.57;;;2.87;;
2772;SDS011;1394;47.044;15.744;2022-12-07T06:39:25;25.00;;;2.30;;
2772;SDS011;1394;47.044;15.744;2022-12-07T06:41:53;30.37;;;3.57;;
2772;SDS011;1394;47.044;15.744;2022-12-07T06:44:21;24.93;;;2.27;;
2772;SDS011;1394;47.044;15.744;2022-12-07T06:46:50;24.60;;;1.90;;
2772;SDS011;1394;47.044;15.744;2022-12-07T06:49:21;24.97;;;2.30;;
2772;SDS011;1394;47.044;15.744;2022-12-07T06:51:51;24.60;;;2.03;;
2772;SDS011;1394;47.044;15.744;2022-12-07T06:54:19;25.10;;;2.70;;
2772;SDS011;1394;47.044;15.744;2022-12-07T06:56:50;25.60;;;2.80;;
2772;SDS011;1394;47.044;15.744;2022-12-07T06:59:17;28.30;;;3.03;;
2772;SDS011;1394;47.044;15.744;2022-12-07T07:01:45;25.40;;;2.60;;
2772;SDS011;1394;47.044;15.744;2022-12-07T07:04:14;25.40;;;2.67;;
2772;SDS011;1394;47.044;15.744;2022-12-07T07:06:41;25.17;;;2.30;;
2772;SDS011;1394;47.044;15.744;2022-12-07T07:09:08;24.60;;;2.13;;
2772;SDS011;1394;47.044;15.744;2022-12-07T07:11:38;27.77;;;2.90;;
2772;SDS011;1394;47.044;15.744;2022-12-07T07:14:06;24.90;;;2.27;;
2772;SDS011;1394;47.044;15.744;2022-12-07T07:16:33;24.67;;;2.23;;
2772;SDS011;1394;47.044;15.744;2022-12-07T07:19:02;24.80;;;2.17;;
2772;SDS011;1394;47.044;15.744;2022-12-07T07:21:31;25.00;;;1.97;;
2772;SDS011;1394;47.044;15.744;2022-12-07T07:23:58;24.87;;;1.97;;
2772;SDS011;1394;47.044;15.744;2022-12-07T07:26:25;24.90;;;2.20;;
2772;SDS011;1394;47.044;15.744;2022-12-07T07:28:52;25.20;;;2.53;;
2772;SDS011;1394;47.044;15.744;2022-12-07T07:31:20;25.70;;;2.50;;
2772;SDS011;1394;47.044;15.744;2022-12-07T07:33:47;25.43;;;2.17;;
2772;SDS011;1394;47.044;15.744;2022-12-07T07:36:14;25.37;;;2.47;;
2772;SDS011;1394;47.044;15.744;2022-12-07T07:38:43;26.00;;;2.77;;
2772;SDS011;1394;47.044;15.744;2022-12-07T07:41:10;25.37;;;2.60;;
2772;SDS011;1394;47.044;15.744;2022-12-07T07:43:37;25.30;;;2.80;;
2772;SDS011;1394;47.044;15.744;2022-12-07T07:46:04;24.87;;;2.40;;
2772;SDS011;1394;47.044;15.744;2022-12-07T07:48:32;24.53;;;2.30;;
2772;SDS011;1394;47.044;15.744;2022-12-07T07:51:00;24.77;;;2.23;;
2772;SDS011;1394;47.044;15.744;2022-12-07T07:53:27;25.73;;;2.83;;
2772;SDS011;1394;47.044;15.744;2022-12-07T07:55:56;24.83;;;2.30;;
2772;SDS011;1394;47.044;15.744;2022-12-07T07:58:24;25.20;;;2.23;;
2772;SDS011;1394;47.044;15.744;2022-12-07T08:00:51;25.20;;;2.73;;
2772;SDS011;1394;47.044;15.744;2022-12-07T08:03:19;24.90;;;2.00;;
2772;SDS011;1394;47.044;15.744;2022-12-07T08:05:46;24.80;;;1.93;;
2772;SDS011;1394;47.044;15.744;2022-12-07T08:08:14;25.13;;;2.50;;
2772;SDS011;1394;47.044;15.744;2022-12-07T08:10:41;25.17;;;2.50;;
2772;SDS011;1394;47.044;15.744;2022-12-07T08:13:09;25.10;;;2.60;;
2772;SDS011;1394;47.044;15.744;2022-12-07T08:15:38;25.73;;;3.23;;
2772;SDS011;1394;47.044;15.744;2022-12-07T08:18:06;26.57;;;3.10;;
2772;SDS011;1394;47.044;15.744;2022-12-07T08:20:37;25.30;;;2.50;;
2772;SDS011;1394;47.044;15.744;2022-12-07T08:23:05;25.03;;;2.00;;
2772;SDS011;1394;47.044;15.744;2022-12-07T08:25:35;25.40;;;2.50;;
2772;SDS011;1394;47.044;15.744;2022-12-07T08:28:03;25.60;;;3.07;;
2772;SDS011;1394;47.044;15.744;2022-12-07T08:30:32;25.20;;;2.60;;
2772;SDS011;1394;47.044;15.744;2022-12-07T08:33:00;26.43;;;3.20;;
2772;SDS011;1394;47.044;15.744;2022-12-07T08:35:36;25.10;;;2.50;;
2772;SDS011;1394;47.044;15.744;2022-12-07T08:38:03;24.87;;;2.30;;
2772;SDS011;1394;47.044;15.744;2022-12-07T08:40:31;25.63;;;2.63;;
2772;SDS011;1394;47.044;15.744;2022-12-07T08:42:58;24.87;;;2.40;;
2772;SDS011;1394;47.044;15.744;2022-12-07T08:45:25;24.97;;;2.27;;
2772;SDS011;1394;47.044;15.744;2022-12-07T08:47:55;25.87;;;2.37;;
2772;SDS011;1394;47.044;15.744;2022-12-07T08:50:23;25.30;;;2.73;;
2772;SDS011;1394;47.044;15.744;2022-12-07T08:52:51;25.10;;;2.33;;
2772;SDS011;1394;47.044;15.744;2022-12-07T08:55:20;25.10;;;2.80;;
2772;SDS011;1394;47.044;15.744;2022-12-07T08:57:47;25.50;;;2.50;;
2772;SDS011;1394;47.044;15.744;2022-12-07T09:00:15;24.83;;;2.30;;
2772;SDS011;1394;47.044;15.744;2022-12-07T09:02:43;24.87;;;2.50;;
2772;SDS011;1394;47.044;15.744;2022-12-07T09:05:12;25.20;;;2.50;;
2772;SDS011;1394;47.044;15.744;2022-12-07T09:07:41;24.90;;;2.47;;
2772;SDS011;1394;47.044;15.744;2022-12-07T09:10:08;25.30;;;3.00;;
2772;SDS011;1394;47.044;15.744;2022-12-07T09:12:36;24.97;;;2.20;;
2772;SDS011;1394;47.044;15.744;2022-12-07T09:15:04;24.83;;;2.80;;
2772;SDS011;1394;47.044;15.744;2022-12-07T09:17:31;24.93;;;2.73;;
2772;SDS011;1394;47.044;15.744;2022-12-07T09:19:59;24.70;;;2.20;;
2772;SDS011;1394;47.044;15.744;2022-12-07T09:22:29;24.90;;;2.60;;
2772;SDS011;1394;47.044;15.744;2022-12-07T09:24:57;24.87;;;2.20;;
2772;SDS011;1394;47.044;15.744;2022-12-07T09:27:38;25.10;;;2.60;;
2772;SDS011;1394;47.044;15.744;2022-12-07T09:30:06;25.10;;;2.50;;
2772;SDS011;1394;47.044;15.744;2022-12-07T09:32:33;24.87;;;2.20;;
2772;SDS011;1394;47.044;15.744;2022-12-07T09:35:13;25.20;;;2.60;;
2772;SDS011;1394;47.044;15.744;2022-12-07T09:37:42;25.23;;;2.80;;
2772;SDS011;1394;47.044;15.744;2022-12-07T09:40:09;25.07;;;2.53;;
2772;SDS011;1394;47.044;15.744;2022-12-07T09:42:37;25.17;;;2.87;;
2772;SDS011;1394;47.044;15.744;2022-12-07T09:45:06;25.23;;;2.40;;
2772;SDS011;1394;47.044;15.744;2022-12-07T09:47:34;25.00;;;2.70;;
2772;SDS011;1394;47.044;15.744;2022-12-07T09:50:03;25.17;;;2.57;;
2772;SDS011;1394;47.044;15.744;2022-12-07T09:52:31;24.97;;;2.43;;
2772;SDS011;1394;47.044;15.744;2022-12-07T09:55:00;24.83;;;2.17;;
2772;SDS011;1394;47.044;15.744;2022-12-07T09:57:28;24.97;;;2.53;;
2772;SDS011;1394;47.044;15.744;2022-12-07T09:59:57;25.00;;;2.60;;
2772;SDS011;1394;47.044;15.744;2022-12-07T10:02:34;24.80;;;2.43;;
2772;SDS011;1394;47.044;15.744;2022-12-07T10:05:03;25.43;;;3.20;;
2772;SDS011;1394;47.044;15.744;2022-12-07T10:07:31;25.00;;;2.63;;
2772;SDS011;1394;47.044;15.744;2022-12-07T10:09:58;25.37;;;2.77;;
2772;SDS011;1394;47.044;15.744;2022-12-07T10:12:26;24.80;;;2.30;;
2772;SDS011;1394;47.044;15.744;2022-12-07T10:14:55;25.50;;;3.10;;
2772;SDS011;1394;47.044;15.744;2022-12-07T10:17:30;25.07;;;2.80;;
2772;SDS011;1394;47.044;15.744;2022-12-07T10:23:00;25.43;;;2.60;;
2772;SDS011;1394;47.044;15.744;2022-12-07T10:25:28;25.13;;;2.57;;
2772;SDS011;1394;47.044;15.744;2022-12-07T10:27:59;25.10;;;2.70;;
2772;SDS011;1394;47.044;15.744;2022-12-07T10:30:27;25.03;;;2.30;;
2772;SDS011;1394;47.044;15.744;2022-12-07T10:32:54;25.67;;;2.83;;
2772;SDS011;1394;47.044;15.744;2022-12-07T10:35:24;24.90;;;2.70;;
2772;SDS011;1394;47.044;15.744;2022-12-07T10:37:52;25.60;;;2.83;;
2772;SDS011;1394;47.044;15.744;2022-12-07T10:40:25;25.50;;;2.77;;
2772;SDS011;1394;47.044;15.744;2022-12-07T10:43:01;25.00;;;2.80;;
2772;SDS011;1394;47.044;15.744;2022-12-07T10:45:29;24.90;;;2.20;;
2772;SDS011;1394;47.044;15.744;2022-12-07T10:48:10;25.57;;;2.90;;
2772;SDS011;1394;47.044;15.744;2022-12-07T10:50:52;25.40;;;3.40;;
2772;SDS011;1394;47.044;15.744;2022-12-07T10:53:28;25.30;;;2.83;;
2772;SDS011;1394;47.044;15.744;2022-12-07T10:56:11;24.97;;;2.47;;
2772;SDS011;1394;47.044;15.744;2022-12-07T10:58:46;25.17;;;2.47;;
2772;SDS011;1394;47.044;15.744;2022-12-07T11:01:18;25.20;;;2.83;;
2772;SDS011;1394;47.044;15.744;2022-12-07T11:03:53;25.07;;;2.50;;
2772;SDS011;1394;47.044;15.744;2022-12-07T11:06:25;25.63;;;2.50;;
2772;SDS011;1394;47.044;15.744;2022-12-07T11:08:59;25.87;;;2.80;;
2772;SDS011;1394;47.044;15.744;2022-12-07T11:11:30;25.77;;;2.70;;
2772;SDS011;1394;47.044;15.744;2022-12-07T11:14:05;24.90;;;2.20;;
2772;SDS011;1394;47.044;15.744;2022-12-07T11:16:39;25.60;;;2.57;;
2772;SDS011;1394;47.044;15.744;2022-12-07T11:19:17;25.07;;;2.60;;
2772;SDS011;1394;47.044;15.744;2022-12-07T11:21:49;25.17;;;2.57;;
2772;SDS011;1394;47.044;15.744;2022-12-07T11:24:23;25.40;;;2.93;;
2772;SDS011;1394;47.044;15.744;2022-12-07T11:26:59;25.50;;;2.80;;
2772;SDS011;1394;47.044;15.744;2022-12-07T11:29:33;25.00;;;2.87;;
2772;SDS011;1394;47.044;15.744;2022-12-07T11:32:08;25.57;;;2.53;;
2772;SDS011;1394;47.044;15.744;2022-12-07T11:34:39;25.33;;;2.67;;
2772;SDS011;1394;47.044;15.744;2022-12-07T11:37:08;25.20;;;2.70;;
2772;SDS011;1394;47.044;15.744;2022-12-07T11:39:39;25.43;;;2.50;;
2772;SDS011;1394;47.044;15.744;2022-12-07T11:42:09;25.17;;;2.73;;
2772;SDS011;1394;47.044;15.744;2022-12-07T11:44:43;24.90;;;2.53;;
2772;SDS011;1394;47.044;15.744;2022-12-07T11:47:13;26.50;;;2.47;;
2772;SDS011;1394;47.044;15.744;2022-12-07T11:49:44;25.00;;;2.37;;
2772;SDS011;1394;47.044;15.744;2022-12-07T11:52:16;24.80;;;2.50;;
2772;SDS011;1394;47.044;15.744;2022-12-07T11:54:47;25.10;;;2.60;;
2772;SDS011;1394;47.044;15.744;2022-12-07T11:57:32;24.70;;;2.30;;
2772;SDS011;1394;47.044;15.744;2022-12-07T12:00:05;24.93;;;2.50;;
2772;SDS011;1394;47.044;15.744;2022-12-07T12:02:34;26.10;;;3.20;;
2772;SDS011;1394;47.044;15.744;2022-12-07T12:05:05;25.70;;;2.80;;
2772;SDS011;1394;47.044;15.744;2022-12-07T12:07:40;24.90;;;2.40;;
2772;SDS011;1394;47.044;15.744;2022-12-07T12:10:14;25.07;;;2.30;;
2772;SDS011;1394;47.044;15.744;2022-12-07T12:12:46;24.90;;;2.50;;
2772;SDS011;1394;47.044;15.744;2022-12-07T12:15:20;24.90;;;2.30;;
2772;SDS011;1394;47.044;15.744;2022-12-07T12:18:00;27.27;;;3.10;;
2772;SDS011;1394;47.044;15.744;2022-12-07T12:20:30;25.30;;;2.70;;
2772;SDS011;1394;47.044;15.744;2022-12-07T12:23:00;25.17;;;2.67;;
2772;SDS011;1394;47.044;15.744;2022-12-07T12:25:29;25.10;;;2.30;;
2772;SDS011;1394;47.044;15.744;2022-12-07T12:28:01;25.30;;;2.90;;
2772;SDS011;1394;47.044;15.744;2022-12-07T12:30:34;25.53;;;3.10;;
2772;SDS011;1394;47.044;15.744;2022-12-07T12:33:03;26.57;;;3.80;;
2772;SDS011;1394;47.044;15.744;2022-12-07T12:35:31;25.77;;;3.43;;
2772;SDS011;1394;47.044;15.744;2022-12-07T12:40:45;26.00;;;3.20;;
2772;SDS011;1394;47.044;15.744;2022-12-07T12:48:41;25.30;;;2.50;;
2772;SDS011;1394;47.044;15.744;2022-12-07T12:54:02;24.77;;;2.30;;
2772;SDS011;1394;47.044;15.744;2022-12-07T12:56:34;25.23;;;2.80;;
2772;SDS011;1394;47.044;15.744;2022-12-07T12:59:24;25.60;;;2.50;;
2772;SDS011;1394;47.044;15.744;2022-12-07T13:01:53;25.00;;;2.33;;
2772;SDS011;1394;47.044;15.744;2022-12-07T13:07:14;25.10;;;2.10;;
2772;SDS011;1394;47.044;15.744;2022-12-07T13:10:01;25.00;;;2.37;;
2772;SDS011;1394;47.044;15.744;2022-12-07T13:12:29;25.13;;;2.30;;
2772;SDS011;1394;47.044;15.744;2022-12-07T13:14:57;24.83;;;2.47;;
2772;SDS011;1394;47.044;15.744;2022-12-07T13:20:39;25.60;;;3.43;;
2772;SDS011;1394;47.044;15.744;2022-12-07T13:23:01;25.47;;;2.60;;
2772;SDS011;1394;47.044;15.744;2022-12-07T13:25:33;25.37;;;2.90;;
2772;SDS011;1394;47.044;15.744;2022-12-07T13:28:07;25.00;;;2.60;;
2772;SDS011;1394;47.044;15.744;2022-12-07T13:30:40;24.80;;;2.23;;
2772;SDS011;1394;47.044;15.744;2022-12-07T13:33:10;25.87;;;2.97;;
2772;SDS011;1394;47.044;15.744;2022-12-07T13:35:37;26.47;;;3.70;;
2772;SDS011;1394;47.044;15.744;2022-12-07T13:38:15;24.90;;;2.83;;
2772;SDS011;1394;47.044;15.744;2022-12-07T13:40:43;25.80;;;3.60;;
2772;SDS011;1394;47.044;15.744;2022-12-07T13:43:25;25.33;;;2.93;;
2772;SDS011;1394;47.044;15.744;2022-12-07T13:45:55;25.10;;;2.53;;
2772;SDS011;1394;47.044;15.744;2022-12-07T13:48:24;25.37;;;3.23;;
2772;SDS011;1394;47.044;15.744;2022-12-07T13:50:55;27.00;;;3.43;;
2772;SDS011;1394;47.044;15.744;2022-12-07T13:53:24;24.70;;;2.37;;
2772;SDS011;1394;47.044;15.744;2022-12-07T13:55:55;25.33;;;3.03;;
2772;SDS011;1394;47.044;15.744;2022-12-07T13:58:22;25.23;;;2.83;;
2772;SDS011;1394;47.044;15.744;2022-12-07T14:00:50;25.53;;;3.20;;
2772;SDS011;1394;47.044;15.744;2022-12-07T14:03:23;25.57;;;2.77;;
2772;SDS011;1394;47.044;15.744;2022-12-07T14:06:03;25.37;;;2.90;;
2772;SDS011;1394;47.044;15.744;2022-12-07T14:08:34;25.00;;;2.80;;
2772;SDS011;1394;47.044;15.744;2022-12-07T14:11:01;25.67;;;3.30;;
2772;SDS011;1394;47.044;15.744;2022-12-07T14:13:30;25.77;;;3.10;;
2772;SDS011;1394;47.044;15.744;2022-12-07T14:15:59;24.87;;;2.80;;
2772;SDS011;1394;47.044;15.744;2022-12-07T14:18:26;25.30;;;2.73;;
2772;SDS011;1394;47.044;15.744;2022-12-07T14:21:03;25.50;;;3.23;;
2772;SDS011;1394;47.044;15.744;2022-12-07T14:23:31;26.00;;;3.43;;
2772;SDS011;1394;47.044;15.744;2022-12-07T14:26:06;26.17;;;4.07;;
2772;SDS011;1394;47.044;15.744;2022-12-07T14:28:35;25.27;;;3.40;;
2772;SDS011;1394;47.044;15.744;2022-12-07T14:31:03;25.10;;;2.87;;
2772;SDS011;1394;47.044;15.744;2022-12-07T14:33:30;25.10;;;2.60;;
2772;SDS011;1394;47.044;15.744;2022-12-07T14:35:57;25.20;;;2.90;;
2772;SDS011;1394;47.044;15.744;2022-12-07T14:38:25;25.50;;;3.10;;
2772;SDS011;1394;47.044;15.744;2022-12-07T14:40:53;26.07;;;3.40;;
2772;SDS011;1394;47.044;15.744;2022-12-07T14:43:41;26.20;;;3.30;;
2772;SDS011;1394;47.044;15.744;2022-12-07T14:46:09;25.93;;;3.50;;
2772;SDS011;1394;47.044;15.744;2022-12-07T14:48:36;25.37;;;3.13;;
2772;SDS011;1394;47.044;15.744;2022-12-07T14:51:03;25.27;;;2.77;;
2772;SDS011;1394;47.044;15.744;2022-12-07T14:53:31;25.30;;;2.90;;
2772;SDS011;1394;47.044;15.744;2022-12-07T14:56:00;25.27;;;3.00;;
2772;SDS011;1394;47.044;15.744;2022-12-07T14:58:28;25.87;;;3.20;;
2772;SDS011;1394;47.044;15.744;2022-12-07T15:00:57;26.30;;;3.83;;
2772;SDS011;1394;47.044;15.744;2022-12-07T15:03:36;25.87;;;3.10;;
2772;SDS011;1394;47.044;15.744;2022-12-07T15:06:04;25.00;;;2.90;;
2772;SDS011;1394;47.044;15.744;2022-12-07T15:08:31;25.67;;;2.97;;
2772;SDS011;1394;47.044;15.744;2022-12-07T15:10:59;26.70;;;4.20;;
2772;SDS011;1394;47.044;15.744;2022-12-07T15:13:26;26.30;;;4.30;;
2772;SDS011;1394;47.044;15.744;2022-12-07T15:16:14;25.43;;;3.37;;
2772;SDS011;1394;47.044;15.744;2022-12-07T15:18:43;27.27;;;4.20;;
2772;SDS011;1394;47.044;15.744;2022-12-07T15:21:11;25.77;;;3.60;;
2772;SDS011;1394;47.044;15.744;2022-12-07T15:23:39;25.70;;;3.13;;
2772;SDS011;1394;47.044;15.744;2022-12-07T15:26:06;26.53;;;4.30;;
2772;SDS011;1394;47.044;15.744;2022-12-07T15:28:34;26.27;;;3.80;;
2772;SDS011;1394;47.044;15.744;2022-12-07T15:31:01;25.93;;;3.63;;
2772;SDS011;1394;47.044;15.744;2022-12-07T15:33:30;26.47;;;4.27;;
2772;SDS011;1394;47.044;15.744;2022-12-07T15:36:00;26.13;;;3.70;;
2772;SDS011;1394;47.044;15.744;2022-12-07T15:38:27;26.43;;;4.07;;
2772;SDS011;1394;47.044;15.744;2022-12-07T15:40:55;25.73;;;3.77;;
2772;SDS011;1394;47.044;15.744;2022-12-07T15:43:23;27.50;;;4.00;;
2772;SDS011;1394;47.044;15.744;2022-12-07T15:46:07;25.43;;;3.20;;
2772;SDS011;1394;47.044;15.744;2022-12-07T15:48:36;26.70;;;4.50;;
2772;SDS011;1394;47.044;15.744;2022-12-07T15:51:03;26.57;;;3.70;;
2772;SDS011;1394;47.044;15.744;2022-12-07T15:53:31;25.47;;;3.30;;